createdAt,value
2022-11-24T00:00:09.331Z,67.72
2022-11-24T00:05:11.984Z,67.82
2022-11-24T00:10:14.660Z,67.97
2022-11-24T00:15:18.781Z,68.46
2022-11-24T00:20:21.452Z,68.80
2022-11-24T00:25:24.099Z,69.18
2022-11-24T00:30:28.190Z,69.62
2022-11-24T00:35:30.846Z,69.41
2022-11-24T00:40:35.088Z,69.98
2022-11-24T00:45:39.464Z,70.12
2022-11-24T00:50:42.310Z,70.01
2022-11-24T00:55:45.016Z,70.16
2022-11-24T01:00:49.307Z,70.32
2022-11-24T01:05:51.968Z,70.46
2022-11-24T01:10:54.709Z,70.50
2022-11-24T01:15:58.836Z,70.67
2022-11-24T01:21:09.869Z,70.91
2022-11-24T01:26:16.027Z,70.84
2022-11-24T01:31:20.087Z,70.82
2022-11-24T01:36:23.371Z,71.04
2022-11-24T01:41:27.219Z,71.42
2022-11-24T01:46:35.267Z,71.31
2022-11-24T01:51:41.646Z,71.59
2022-11-24T01:56:47.294Z,71.57
2022-11-24T02:01:52.530Z,71.59
2022-11-24T02:06:55.887Z,71.32
2022-11-24T02:12:00.005Z,71.50
2022-11-24T02:17:04.050Z,71.76
2022-11-24T02:22:11.540Z,71.78
2022-11-24T02:27:15.576Z,72.30
2022-11-24T02:32:19.428Z,72.18
2022-11-24T02:37:22.075Z,72.36
2022-11-24T02:42:26.391Z,72.10
2022-11-24T02:47:29.284Z,72.10
2022-11-24T02:52:31.983Z,72.05
2022-11-24T02:57:36.099Z,72.13
2022-11-24T03:02:38.789Z,72.25
2022-11-24T03:07:41.645Z,72.31
2022-11-24T03:12:45.745Z,72.35
2022-11-24T03:17:48.391Z,72.39
2022-11-24T03:22:51.495Z,72.35
2022-11-24T03:27:56.736Z,72.49
2022-11-24T03:32:59.397Z,72.73
2022-11-24T03:38:02.129Z,72.46
2022-11-24T03:43:06.320Z,72.82
2022-11-24T03:48:09.017Z,72.97
2022-11-24T03:53:11.832Z,72.91
2022-11-24T03:58:15.831Z,72.99
2022-11-24T04:03:19.146Z,72.95
2022-11-24T04:08:21.820Z,73.29
2022-11-24T04:13:26.985Z,73.40
2022-11-24T04:18:29.633Z,73.26
2022-11-24T04:23:32.239Z,73.24
2022-11-24T04:28:36.612Z,73.21
2022-11-24T04:33:39.266Z,73.48
2022-11-24T04:39:23.378Z,73.43
2022-11-24T04:44:06.095Z,73.51
2022-11-24T04:49:11.553Z,73.62
2022-11-24T04:54:15.091Z,73.34
2022-11-24T04:59:19.792Z,73.48
2022-11-24T05:04:22.734Z,73.36
2022-11-24T05:09:36.912Z,73.26
2022-11-24T05:14:50.130Z,73.69
2022-11-24T05:19:52.791Z,73.56
2022-11-24T05:24:55.473Z,73.45
2022-11-24T05:29:59.560Z,73.55
2022-11-24T05:35:04.457Z,73.58
2022-11-24T05:40:08.032Z,73.49
2022-11-24T05:45:14.328Z,73.64
2022-11-24T05:50:18.556Z,73.77
2022-11-24T05:55:21.294Z,73.96
2022-11-24T06:00:25.355Z,73.68
2022-11-24T06:05:29.022Z,73.70
2022-11-24T06:10:31.974Z,73.75
2022-11-24T06:15:37.518Z,74.13
2022-11-24T06:20:40.143Z,74.04
2022-11-24T06:25:46.149Z,74.20
2022-11-24T06:30:52.774Z,74.38
2022-11-24T06:36:01.416Z,74.20
2022-11-24T06:41:06.245Z,74.05
2022-11-24T06:46:10.675Z,74.21
2022-11-24T06:51:14.315Z,74.31
2022-11-24T06:56:19.940Z,74.61
2022-11-24T07:01:25.695Z,74.77
2022-11-24T07:06:29.185Z,75.04
2022-11-24T07:11:31.850Z,75.12
2022-11-24T07:16:36.748Z,77.09
2022-11-24T07:21:39.477Z,79.22
2022-11-24T07:26:42.147Z,79.82
2022-11-24T07:31:46.745Z,80.33
2022-11-24T07:36:50.076Z,80.38
2022-11-24T10:12:11.179Z,71.11
2022-11-24T10:17:21.360Z,70.11
2022-11-24T10:22:37.755Z,69.22
2022-11-24T10:27:44.830Z,68.31
2022-11-24T10:32:49.328Z,67.84
2022-11-24T10:37:57.421Z,67.51
2022-11-24T10:43:01.712Z,67.20
2022-11-24T10:48:05.117Z,66.77
2022-11-24T10:53:15.878Z,66.11
2022-11-24T10:58:24.735Z,66.29
2022-11-24T11:03:28.747Z,66.17
2022-11-24T11:08:31.999Z,65.78
2022-11-24T11:13:35.949Z,65.18
2022-11-24T11:18:38.533Z,65.08
2022-11-24T11:23:41.594Z,64.86
2022-11-24T11:31:15.626Z,64.65
2022-11-24T11:34:28.514Z,64.57
2022-11-24T11:39:34.755Z,64.60
2022-11-24T11:44:40.582Z,64.93
2022-11-24T11:49:43.316Z,64.88
2022-11-24T11:55:00.704Z,64.32
2022-11-24T12:00:10.476Z,64.09
2022-11-24T12:05:18.937Z,64.06
2022-11-24T12:10:27.051Z,63.77
2022-11-24T12:15:33.703Z,63.49
2022-11-24T12:20:44.904Z,63.41
2022-11-24T12:25:50.937Z,63.81
2022-11-24T12:31:02.868Z,63.81
2022-11-24T12:36:13.151Z,63.81
2022-11-24T12:41:41.573Z,64.00
2022-11-24T12:46:53.521Z,64.49
2022-11-24T12:52:01.119Z,64.41
2022-11-24T12:57:08.317Z,63.72
2022-11-24T13:02:22.455Z,63.65
2022-11-24T13:07:38.788Z,63.64
2022-11-24T13:12:54.856Z,63.27
2022-11-24T13:18:08.680Z,63.01
2022-11-24T13:23:30.340Z,63.45
2022-11-24T13:29:05.763Z,63.41
2022-11-24T13:35:00.939Z,63.31
2022-11-24T13:40:59.871Z,63.54
2022-11-24T13:46:10.892Z,63.82
2022-11-24T13:51:24.398Z,63.93
2022-11-24T13:56:32.382Z,63.35
2022-11-24T14:01:40.804Z,63.36
2022-11-24T14:06:45.533Z,62.81
2022-11-24T14:11:58.344Z,62.85
2022-11-24T14:17:23.090Z,62.80
2022-11-24T14:22:32.211Z,62.82
2022-11-24T14:27:37.532Z,63.08
2022-11-24T14:32:40.377Z,62.94
2022-11-24T14:37:43.162Z,63.63
2022-11-24T14:42:51.608Z,63.93
2022-11-24T14:47:55.539Z,64.42
2022-11-24T14:52:59.143Z,64.68
2022-11-24T14:58:03.148Z,64.75
2022-11-24T15:03:15.947Z,65.39
2022-11-24T15:08:18.880Z,65.42
2022-11-24T15:13:24.435Z,65.53
2022-11-24T15:18:28.887Z,65.91
2022-11-24T15:23:32.013Z,66.34
2022-11-24T15:28:35.959Z,66.62
2022-11-24T15:33:39.233Z,66.63
2022-11-24T15:38:42.303Z,67.35
2022-11-24T15:43:46.282Z,67.30
2022-11-24T15:48:48.871Z,68.11
2022-11-24T15:53:55.787Z,68.19
2022-11-24T15:59:04.867Z,68.36
2022-11-24T16:04:07.655Z,68.95
2022-11-24T16:09:13.932Z,69.21
2022-11-24T16:14:17.914Z,69.71
2022-11-24T16:19:20.515Z,69.64
2022-11-24T16:24:23.120Z,70.38
2022-11-24T16:29:27.038Z,70.63
2022-11-24T16:34:29.630Z,70.77
2022-11-24T16:39:32.248Z,71.00
2022-11-24T16:44:36.402Z,70.87
2022-11-24T16:49:39.612Z,71.30
2022-11-24T16:54:42.258Z,70.91
2022-11-24T16:59:46.919Z,70.13
2022-11-24T17:04:52.159Z,69.54
2022-11-24T17:09:54.811Z,68.74
2022-11-24T17:15:30.286Z,68.14
2022-11-24T17:20:21.771Z,67.23
2022-11-24T17:25:24.385Z,66.87
2022-11-24T17:30:28.342Z,66.29
2022-11-24T17:35:30.933Z,66.02
2022-11-24T17:40:33.619Z,65.73
2022-11-24T17:45:37.649Z,65.49
2022-11-24T17:50:40.267Z,65.45
2022-11-24T17:55:42.936Z,65.44
2022-11-24T18:00:46.947Z,65.47
2022-11-24T18:05:50.088Z,65.76
2022-11-24T18:10:52.688Z,65.80
2022-11-24T18:16:00.393Z,65.69
2022-11-24T18:21:03.888Z,65.79
2022-11-24T18:26:07.479Z,65.36
2022-11-24T18:31:12.990Z,65.46
2022-11-24T18:36:18.077Z,65.53
2022-11-24T18:41:21.058Z,65.33
2022-11-24T18:46:25.159Z,65.76
2022-11-24T18:51:28.007Z,65.83
2022-11-24T18:56:30.664Z,65.52
2022-11-24T19:01:34.838Z,65.73
2022-11-24T19:06:38.568Z,66.29
2022-11-24T19:11:43.098Z,66.86
2022-11-24T19:16:47.803Z,67.17
2022-11-24T19:21:50.530Z,66.54
2022-11-24T19:26:54.180Z,66.58
2022-11-24T19:31:58.204Z,66.44
2022-11-24T19:37:00.848Z,66.56
2022-11-24T19:42:04.692Z,66.52
2022-11-24T19:47:08.696Z,66.80
2022-11-24T19:52:11.406Z,66.83
2022-11-24T19:57:14.137Z,66.58
2022-11-24T20:02:18.239Z,66.61
2022-11-24T20:07:21.041Z,66.61
2022-11-24T20:12:23.768Z,66.35
2022-11-24T20:17:29.944Z,66.56
2022-11-24T20:22:32.694Z,66.70
2022-11-24T20:27:35.425Z,66.49
2022-11-24T20:32:39.581Z,66.57
2022-11-24T20:37:42.268Z,66.28
2022-11-24T20:42:44.942Z,66.58
2022-11-24T20:47:48.970Z,66.54
2022-11-24T20:52:51.602Z,66.26
2022-11-24T20:57:54.240Z,66.07
2022-11-24T21:02:58.463Z,65.87
2022-11-24T21:08:01.115Z,65.82
2022-11-24T21:13:03.823Z,65.68
2022-11-24T21:18:07.893Z,65.70
2022-11-24T21:23:10.962Z,65.89
2022-11-24T21:28:13.894Z,65.88
2022-11-24T21:33:19.680Z,65.78
2022-11-24T21:38:25.240Z,66.09
2022-11-24T21:43:29.543Z,65.96
2022-11-24T21:48:34.285Z,66.25
2022-11-24T21:53:38.520Z,66.36
2022-11-24T21:58:45.728Z,66.19
2022-11-24T22:03:50.074Z,66.39
2022-11-24T22:08:52.835Z,66.28
2022-11-24T22:13:55.576Z,66.21
2022-11-24T22:19:01.016Z,66.61
2022-11-24T22:24:04.065Z,66.17
2022-11-24T22:29:07.648Z,67.01
2022-11-24T22:34:11.699Z,67.27
2022-11-24T22:39:14.695Z,66.97
2022-11-24T22:44:17.451Z,67.10
2022-11-24T22:49:23.513Z,67.31
2022-11-24T22:54:26.217Z,67.77
2022-11-24T22:59:28.918Z,67.84
2022-11-24T23:04:33.235Z,68.06
2022-11-24T23:09:36.151Z,68.44
2022-11-24T23:14:38.835Z,68.01
2022-11-24T23:19:42.881Z,68.49
2022-11-24T23:24:45.619Z,68.82
2022-11-24T23:29:48.292Z,69.11
2022-11-24T23:34:52.306Z,69.21
2022-11-24T23:39:54.993Z,69.23
2022-11-24T23:44:57.778Z,69.51
2022-11-24T23:50:01.837Z,69.61
2022-11-24T23:55:05.182Z,70.05
